Weather at Bangoka International Airport

Public forecast

Using degrees Celsius for public forecast. Weather courtesy of forecast.io.

Current aviation weather report (METAR) for Bangoka International Airport

Report is more than 6 hours old.

2022/11/13 16:00 (retrieved 2 years ago)

FZIC 131600Z 00000KT 8000 TS FEW020 FEW028CB SCT100 26/21 Q1011 NOSIG

Aviation forecast (TAF) for Bangoka International Airport

Forecast is more than 12 hours old.

2023/02/22 12:00 (retrieved 1 year ago)

TAF FZIC 221100Z 2212/2318 16006KT 6000 SCT022 FEW032CB BECMG 2215/2217 00000KT NSC BECMG 2300/2302 1500 BR FM230600 16006KT 6000 FEW012 BECMG 2309/2311 SCT024 FEW034CB